Lord Of The Glens — ZQOE9 — position and weather

sailwx.info

Track history (hours):
 
Tides and Currents Weather Stations Pressure Air Temp Water Temp Dewpoint Dewpoint Depression Visibility Wind Speed Wind Dir Waves Ship Positions

Lord Of The Glens

Operator: V Ships UK Ltd

Last reported at 2019-Jul-18 08:44 UTC. Time now 2019-Jul-22 14:34 UTC.
Position N 56°34' W 005°25'.

Length 45 m; draft 2.8 m.

Type: Passenger vessel. MMSI: 235000295.

Date/timePositionNaut miles runAvg speedWind from/ knotsBaromVisibWave heightAir tempDewpointWater temp
2019-Jul-18 08:44N 56°34' W 005°25'2 8.8
2019-Jul-18 08:30N 56°32' W 005°26'510.0
2019-Jul-18 07:59N 56°27' W 005°30'2 0.1
2019-Jul-17 14:48N 56°26' W 005°29'37 1.2
2019-Jul-16 07:19N 57°01' W 005°49'2 0.1
2019-Jul-15 17:08N 57°01' W 005°46'310.2
2019-Jul-15 16:53N 57°03' W 005°50'5 1.4
2019-Jul-15 13:03N 57°08' W 005°47'1 9.3
2019-Jul-15 12:58N 57°08' W 005°46'4 9.5
2019-Jul-15 12:30N 57°12' W 005°41'4 8.4
2019-Jul-15 12:00N 57°16' W 005°38'3 5.2
2019-Jul-15 11:28N 57°17' W 005°43'0 0.0
2019-Jul-15 10:58N 57°17' W 005°43'0 0.0
2019-Jul-15 10:28N 57°17' W 005°43'0 0.0
2019-Jul-15 09:58N 57°17' W 005°43'0 0.0
2019-Jul-15 09:28N 57°17' W 005°43'0 0.0
2019-Jul-15 08:58N 57°17' W 005°43'0 0.0
2019-Jul-15 08:28N 57°17' W 005°43'0 0.0
2019-Jul-15 07:58N 57°17' W 005°43'0 0.0
2019-Jul-15 07:28N 57°17' W 005°43'0 0.0
2019-Jul-15 06:59N 57°17' W 005°43'0 0.0
2019-Jul-15 06:29N 57°17' W 005°43'0 0.0
2019-Jul-15 05:49N 57°17' W 005°43'0 0.0
2019-Jul-15 05:30N 57°17' W 005°43'0 0.0
2019-Jul-15 04:58N 57°17' W 005°43'0 0.0
2019-Jul-15 04:25N 57°17' W 005°43'0 0.0
2019-Jul-15 04:00N 57°17' W 005°43'0 0.0
2019-Jul-15 03:29N 57°17' W 005°43'0 0.0
2019-Jul-15 03:00N 57°17' W 005°43'0 0.0
2019-Jul-15 02:28N 57°17' W 005°43'0 0.0
2019-Jul-15 02:00N 57°17' W 005°43'0 0.0
2019-Jul-15 01:29N 57°17' W 005°43'0 0.0
2019-Jul-15 00:55N 57°17' W 005°43'0 0.0
2019-Jul-15 00:30N 57°17' W 005°43'0 0.0
2019-Jul-14 23:57N 57°17' W 005°43'0 0.0
2019-Jul-14 23:27N 57°17' W 005°43'0 0.0
2019-Jul-14 23:00N 57°17' W 005°43'0 0.0
2019-Jul-14 22:28N 57°17' W 005°43'0 0.0
2019-Jul-14 21:59N 57°17' W 005°43'0 0.0
2019-Jul-14 21:29N 57°17' W 005°43'0 0.0
2019-Jul-14 20:58N 57°17' W 005°43'0 0.0
2019-Jul-14 20:30N 57°17' W 005°43'0 0.0
2019-Jul-14 19:58N 57°17' W 005°43'0 0.0
2019-Jul-14 19:29N 57°17' W 005°43'0 0.0
2019-Jul-14 19:00N 57°17' W 005°43'0 0.0
2019-Jul-14 18:28N 57°17' W 005°43'0 0.0
2019-Jul-14 18:00N 57°17' W 005°43'0 0.0
2019-Jul-14 17:28N 57°17' W 005°43'0 0.0
2019-Jul-14 16:58N 57°17' W 005°43'0 0.0
2019-Jul-14 16:29N 57°17' W 005°43'0 0.0
2019-Jul-14 15:57N 57°17' W 005°43'0 0.0
2019-Jul-14 15:28N 57°17' W 005°43'0 0.0
2019-Jul-14 15:00N 57°17' W 005°43'0 0.0
2019-Jul-14 14:27N 57°17' W 005°43'0 0.0
2019-Jul-14 14:00N 57°17' W 005°43'0 0.0
2019-Jul-14 13:29N 57°17' W 005°43'0 0.0
2019-Jul-14 13:00N 57°17' W 005°43'0 0.0
2019-Jul-14 12:29N 57°17' W 005°43'0 0.0
2019-Jul-14 12:00N 57°17' W 005°43'0 0.0
2019-Jul-14 11:28N 57°17' W 005°43'0 0.0
2019-Jul-14 10:59N 57°17' W 005°43'0 0.0
2019-Jul-14 10:30N 57°17' W 005°43'0 0.0
2019-Jul-14 09:59N 57°17' W 005°43'0 0.0
2019-Jul-14 09:28N 57°17' W 005°43'0 0.0
2019-Jul-14 08:58N 57°17' W 005°43'0 0.0
2019-Jul-14 08:29N 57°17' W 005°43'0 0.0
2019-Jul-14 08:00N 57°17' W 005°43'0 0.0
2019-Jul-14 07:29N 57°17' W 005°43'0 0.0
2019-Jul-14 06:57N 57°17' W 005°43'0 0.0
2019-Jul-14 06:29N 57°17' W 005°43'0 0.0
2019-Jul-14 06:00N 57°17' W 005°43'0 0.0
2019-Jul-14 05:28N 57°17' W 005°43'0 0.0
2019-Jul-14 04:59N 57°17' W 005°43'0 0.0
2019-Jul-14 04:27N 57°17' W 005°43'0 0.0
2019-Jul-14 03:58N 57°17' W 005°43'0 0.0
2019-Jul-14 03:29N 57°17' W 005°43'0 0.0
2019-Jul-14 03:00N 57°17' W 005°43'0 0.0
2019-Jul-14 02:28N 57°17' W 005°43'0 0.0
2019-Jul-14 01:58N 57°17' W 005°43'0 0.0
2019-Jul-14 01:30N 57°17' W 005°43'0 0.0
2019-Jul-14 00:57N 57°17' W 005°43'0 0.0
2019-Jul-14 00:29N 57°17' W 005°43'0 0.0
2019-Jul-13 23:59N 57°17' W 005°43'0 0.0
2019-Jul-13 23:30N 57°17' W 005°43'0 0.0
2019-Jul-13 22:57N 57°17' W 005°43'0 0.0
2019-Jul-13 22:29N 57°17' W 005°43'0 0.0
2019-Jul-13 22:00N 57°17' W 005°43'0 0.0
2019-Jul-13 21:30N 57°17' W 005°43'0 0.0
2019-Jul-13 20:58N 57°17' W 005°43'0 0.0
2019-Jul-13 20:29N 57°17' W 005°43'0 0.0
2019-Jul-13 19:57N 57°17' W 005°43'0 0.0
2019-Jul-13 19:29N 57°17' W 005°43'0 0.0
2019-Jul-13 18:58N 57°17' W 005°43'0 0.0
2019-Jul-13 18:29N 57°17' W 005°43'0 0.0
2019-Jul-13 18:00N 57°17' W 005°43'0 0.0
2019-Jul-13 17:28N 57°17' W 005°43'0 0.0
2019-Jul-13 16:59N 57°17' W 005°43'0 0.0
2019-Jul-13 16:30N 57°17' W 005°43'0 0.0
2019-Jul-13 15:58N 57°17' W 005°43'0 0.0
2019-Jul-13 15:28N 57°17' W 005°43'0 0.0
2019-Jul-13 14:59N 57°17' W 005°43'0 0.0
2019-Jul-13 14:27N 57°17' W 005°43'0 0.0
2019-Jul-13 13:59N 57°17' W 005°43'0 0.0
2019-Jul-13 13:28N 57°17' W 005°43'0 0.0
2019-Jul-13 13:00N 57°17' W 005°43'3 5.9
2019-Jul-13 12:30N 57°15' W 005°39'5 9.9
2019-Jul-13 11:59N 57°10' W 005°43'9 2.0
2019-Jul-13 07:45N 57°03' W 005°50'3 9.7
2019-Jul-13 07:27N 57°01' W 005°46'0 0.0
2019-Jul-12 16:35N 57°01' W 005°46'110.0
2019-Jul-12 16:28N 57°01' W 005°48'34 1.0
2019-Jul-11 06:32N 56°28' W 005°39'2 9.9
2019-Jul-11 06:20N 56°27' W 005°36'3 9.8
2019-Jul-11 06:00N 56°26' W 005°30'1 0.0
2019-Jul-10 11:36N 56°25' W 005°29'1 6.1
2019-Jul-10 11:29N 56°26' W 005°30'4 9.2
2019-Jul-10 11:00N 56°30' W 005°28'5 9.0
2019-Jul-10 10:29N 56°35' W 005°24'  
Track history (hours):
 
Tides and Currents Weather Stations Pressure Air Temp Water Temp Dewpoint Dewpoint Depression Visibility Wind Speed Wind Dir Waves Ship Positions

Lord Of The Glens

Operator: V Ships UK Ltd

Last reported at 2019-Jul-18 08:44 UTC. Time now 2019-Jul-22 14:34 UTC.
Position N 56°34' W 005°25'.

Length 45 m; draft 2.8 m.

Type: Passenger vessel. MMSI: 235000295.

Date/timePositionNaut miles runAvg speedWind from/ knotsBaromVisibWave heightAir tempDewpointWater temp
2019-Jul-18 08:44N 56°34' W 005°25'2 8.8
2019-Jul-18 08:30N 56°32' W 005°26'510.0
2019-Jul-18 07:59N 56°27' W 005°30'2 0.1
2019-Jul-17 14:48N 56°26' W 005°29'37 1.2
2019-Jul-16 07:19N 57°01' W 005°49'2 0.1
2019-Jul-15 17:08N 57°01' W 005°46'310.2
2019-Jul-15 16:53N 57°03' W 005°50'5 1.4
2019-Jul-15 13:03N 57°08' W 005°47'1 9.3
2019-Jul-15 12:58N 57°08' W 005°46'4 9.5
2019-Jul-15 12:30N 57°12' W 005°41'4 8.4
2019-Jul-15 12:00N 57°16' W 005°38'3 5.2
2019-Jul-15 11:28N 57°17' W 005°43'0 0.0
2019-Jul-15 10:58N 57°17' W 005°43'0 0.0
2019-Jul-15 10:28N 57°17' W 005°43'0 0.0
2019-Jul-15 09:58N 57°17' W 005°43'0 0.0
2019-Jul-15 09:28N 57°17' W 005°43'0 0.0
2019-Jul-15 08:58N 57°17' W 005°43'0 0.0
2019-Jul-15 08:28N 57°17' W 005°43'0 0.0
2019-Jul-15 07:58N 57°17' W 005°43'0 0.0
2019-Jul-15 07:28N 57°17' W 005°43'0 0.0
2019-Jul-15 06:59N 57°17' W 005°43'0 0.0
2019-Jul-15 06:29N 57°17' W 005°43'0 0.0
2019-Jul-15 05:49N 57°17' W 005°43'0 0.0
2019-Jul-15 05:30N 57°17' W 005°43'0 0.0
2019-Jul-15 04:58N 57°17' W 005°43'0 0.0
2019-Jul-15 04:25N 57°17' W 005°43'0 0.0
2019-Jul-15 04:00N 57°17' W 005°43'0 0.0
2019-Jul-15 03:29N 57°17' W 005°43'0 0.0
2019-Jul-15 03:00N 57°17' W 005°43'0 0.0
2019-Jul-15 02:28N 57°17' W 005°43'0 0.0
2019-Jul-15 02:00N 57°17' W 005°43'0 0.0
2019-Jul-15 01:29N 57°17' W 005°43'0 0.0
2019-Jul-15 00:55N 57°17' W 005°43'0 0.0
2019-Jul-15 00:30N 57°17' W 005°43'0 0.0
2019-Jul-14 23:57N 57°17' W 005°43'0 0.0
2019-Jul-14 23:27N 57°17' W 005°43'0 0.0
2019-Jul-14 23:00N 57°17' W 005°43'0 0.0
2019-Jul-14 22:28N 57°17' W 005°43'0 0.0
2019-Jul-14 21:59N 57°17' W 005°43'0 0.0
2019-Jul-14 21:29N 57°17' W 005°43'0 0.0
2019-Jul-14 20:58N 57°17' W 005°43'0 0.0
2019-Jul-14 20:30N 57°17' W 005°43'0 0.0
2019-Jul-14 19:58N 57°17' W 005°43'0 0.0
2019-Jul-14 19:29N 57°17' W 005°43'0 0.0
2019-Jul-14 19:00N 57°17' W 005°43'0 0.0
2019-Jul-14 18:28N 57°17' W 005°43'0 0.0
2019-Jul-14 18:00N 57°17' W 005°43'0 0.0
2019-Jul-14 17:28N 57°17' W 005°43'0 0.0
2019-Jul-14 16:58N 57°17' W 005°43'0 0.0
2019-Jul-14 16:29N 57°17' W 005°43'0 0.0
2019-Jul-14 15:57N 57°17' W 005°43'0 0.0
2019-Jul-14 15:28N 57°17' W 005°43'0 0.0
2019-Jul-14 15:00N 57°17' W 005°43'0 0.0
2019-Jul-14 14:27N 57°17' W 005°43'0 0.0
2019-Jul-14 14:00N 57°17' W 005°43'0 0.0
2019-Jul-14 13:29N 57°17' W 005°43'0 0.0
2019-Jul-14 13:00N 57°17' W 005°43'0 0.0
2019-Jul-14 12:29N 57°17' W 005°43'0 0.0
2019-Jul-14 12:00N 57°17' W 005°43'0 0.0
2019-Jul-14 11:28N 57°17' W 005°43'0 0.0
2019-Jul-14 10:59N 57°17' W 005°43'0 0.0
2019-Jul-14 10:30N 57°17' W 005°43'0 0.0
2019-Jul-14 09:59N 57°17' W 005°43'0 0.0
2019-Jul-14 09:28N 57°17' W 005°43'0 0.0
2019-Jul-14 08:58N 57°17' W 005°43'0 0.0
2019-Jul-14 08:29N 57°17' W 005°43'0 0.0
2019-Jul-14 08:00N 57°17' W 005°43'0 0.0
2019-Jul-14 07:29N 57°17' W 005°43'0 0.0
2019-Jul-14 06:57N 57°17' W 005°43'0 0.0
2019-Jul-14 06:29N 57°17' W 005°43'0 0.0
2019-Jul-14 06:00N 57°17' W 005°43'0 0.0
2019-Jul-14 05:28N 57°17' W 005°43'0 0.0
2019-Jul-14 04:59N 57°17' W 005°43'0 0.0
2019-Jul-14 04:27N 57°17' W 005°43'0 0.0
2019-Jul-14 03:58N 57°17' W 005°43'0 0.0
2019-Jul-14 03:29N 57°17' W 005°43'0 0.0
2019-Jul-14 03:00N 57°17' W 005°43'0 0.0
2019-Jul-14 02:28N 57°17' W 005°43'0 0.0
2019-Jul-14 01:58N 57°17' W 005°43'0 0.0
2019-Jul-14 01:30N 57°17' W 005°43'0 0.0
2019-Jul-14 00:57N 57°17' W 005°43'0 0.0
2019-Jul-14 00:29N 57°17' W 005°43'0 0.0
2019-Jul-13 23:59N 57°17' W 005°43'0 0.0
2019-Jul-13 23:30N 57°17' W 005°43'0 0.0
2019-Jul-13 22:57N 57°17' W 005°43'0 0.0
2019-Jul-13 22:29N 57°17' W 005°43'0 0.0
2019-Jul-13 22:00N 57°17' W 005°43'0 0.0
2019-Jul-13 21:30N 57°17' W 005°43'0 0.0
2019-Jul-13 20:58N 57°17' W 005°43'0 0.0
2019-Jul-13 20:29N 57°17' W 005°43'0 0.0
2019-Jul-13 19:57N 57°17' W 005°43'0 0.0
2019-Jul-13 19:29N 57°17' W 005°43'0 0.0
2019-Jul-13 18:58N 57°17' W 005°43'0 0.0
2019-Jul-13 18:29N 57°17' W 005°43'0 0.0
2019-Jul-13 18:00N 57°17' W 005°43'0 0.0
2019-Jul-13 17:28N 57°17' W 005°43'0 0.0
2019-Jul-13 16:59N 57°17' W 005°43'0 0.0
2019-Jul-13 16:30N 57°17' W 005°43'0 0.0
2019-Jul-13 15:58N 57°17' W 005°43'0 0.0
2019-Jul-13 15:28N 57°17' W 005°43'0 0.0
2019-Jul-13 14:59N 57°17' W 005°43'0 0.0
2019-Jul-13 14:27N 57°17' W 005°43'0 0.0
2019-Jul-13 13:59N 57°17' W 005°43'0 0.0
2019-Jul-13 13:28N 57°17' W 005°43'0 0.0
2019-Jul-13 13:00N 57°17' W 005°43'3 5.9
2019-Jul-13 12:30N 57°15' W 005°39'5 9.9
2019-Jul-13 11:59N 57°10' W 005°43'9 2.0
2019-Jul-13 07:45N 57°03' W 005°50'3 9.7
2019-Jul-13 07:27N 57°01' W 005°46'0 0.0
2019-Jul-12 16:35N 57°01' W 005°46'110.0
2019-Jul-12 16:28N 57°01' W 005°48'34 1.0
2019-Jul-11 06:32N 56°28' W 005°39'2 9.9
2019-Jul-11 06:20N 56°27' W 005°36'3 9.8
2019-Jul-11 06:00N 56°26' W 005°30'1 0.0
2019-Jul-10 11:36N 56°25' W 005°29'1 6.1
2019-Jul-10 11:29N 56°26' W 005°30'4 9.2
2019-Jul-10 11:00N 56°30' W 005°28'5 9.0
2019-Jul-10 10:29N 56°35' W 005°24'  

Dump ship's entire track history